CheckWX is a tool to help pilots better visualize weather data.  It is not intended as a substitute for an official pre-flight weather briefing.

15:41:05 UTC

KGKY METAR
Arlington Municipal Airport
Arlington, Texas, USA
Current

48 mins ago

KGKY 261453Z 16011KT 10SM FEW023 BKN035 26/20 A3007 RMK AO2 SLP174 T02560200 51011
Observed
May-26 @ 14:53 UTC
Wind
  • 160° at 11 KTS
Visibility
10 SM
Flight Rules
VFR
Cloud Levels
  • Few at 2,300' AGL
  • Broken at 3,500' AGL
Temperature
26°C / 79°F
Dewpoint
20°C / 68°F
Humidity
70%
Altimeter
30.07" Hg
Pressure
1018.32 hPa
Previous

60 mins ago

KGKY 261441Z 16015KT 10SM SCT020 SCT026 BKN035 26/20 A3008 RMK AO2 T02560200
Observed
May-26 @ 14:41 UTC
Wind
  • 160° at 15 KTS
Visibility
10 SM
Flight Rules
VFR
Cloud Levels
  • Scattered at 2,000' AGL
  • Scattered at 2,600' AGL
  • Broken at 3,500' AGL
Temperature
26°C / 79°F
Dewpoint
20°C / 68°F
Humidity
70%
Altimeter
30.08" Hg
Pressure
1018.62 hPa
Previous

2 hours ago

KGKY 261353Z 16010G19KT 10SM BKN017 OVC023 25/21 A3007 RMK AO2 SLP171 T02500206
Observed
May-26 @ 13:53 UTC
Wind
  • 160° at 10 KTS
  • Gusting to 19 KTS
Visibility
10 SM
Flight Rules
MVFR
Cloud Levels
  • Broken at 1,700' AGL
  • Overcast at 2,300' AGL
Temperature
25°C / 77°F
Dewpoint
21°C / 70°F
Humidity
79%
Altimeter
30.07" Hg
Pressure
1018.32 hPa